Time;durP1;ratioP1;P1;durP2;ratioP2;P2;SDS_P1;SDS_P2;PMS_P1;PMS_P2;Temp;Humidity;BMP_temperature;BMP_pressure;BME280_temperature;BME280_humidity;BME280_pressure;Samples;Min_cycle;Max_cycle;Signal;HPM_P1;HPM_P2
2021/11/21 00:00:16;;;;;;;16.10;7.97;;;10.10;99.90;;;;;;5022042;28;20205;-52
2021/11/21 00:02:44;;;;;;;23.23;8.50;;;10.10;99.90;;;;;;5021338;28;20233;-52
2021/11/21 00:05:12;;;;;;;15.30;9.25;;;10.10;99.90;;;;;;5021568;28;20205;-56
2021/11/21 00:07:43;;;;;;;11.45;8.38;;;10.10;99.90;;;;;;5020485;28;20217;-53
2021/11/21 00:10:11;;;;;;;11.80;8.20;;;10.10;99.90;;;;;;5020675;28;20228;-53
2021/11/21 00:12:38;;;;;;;11.95;9.57;;;10.20;99.90;;;;;;5019269;28;20226;-56
2021/11/21 00:15:07;;;;;;;11.40;7.63;;;10.20;99.90;;;;;;5021752;28;20238;-56
2021/11/21 00:17:34;;;;;;;14.38;8.60;;;10.20;99.90;;;;;;5024676;28;20263;-54
2021/11/21 00:20:04;;;;;;;11.35;7.45;;;10.20;99.90;;;;;;5029856;28;20268;-54
2021/11/21 00:22:35;;;;;;;11.27;6.60;;;10.10;99.90;;;;;;5023710;28;20547;-51
2021/11/21 00:25:04;;;;;;;13.48;7.70;;;10.00;99.90;;;;;;5029308;28;20503;-50
2021/11/21 00:27:31;;;;;;;11.93;8.13;;;10.00;99.90;;;;;;5026590;28;20201;-53
2021/11/21 00:29:59;;;;;;;9.38;6.65;;;9.90;99.90;;;;;;5031158;28;20463;-56
2021/11/21 00:32:26;;;;;;;15.15;8.00;;;9.90;99.90;;;;;;5027463;28;20275;-56
2021/11/21 00:34:54;;;;;;;9.50;6.90;;;9.90;99.90;;;;;;5030031;28;20202;-57
2021/11/21 00:37:21;;;;;;;7.03;6.10;;;10.10;99.90;;;;;;5033374;28;20205;-56
2021/11/21 00:39:48;;;;;;;11.90;7.65;;;10.00;99.90;;;;;;5030529;28;20266;-49
2021/11/21 00:42:16;;;;;;;9.40;6.97;;;10.10;99.90;;;;;;5033883;28;20455;-56
2021/11/21 00:44:44;;;;;;;9.05;6.55;;;10.10;99.90;;;;;;5026136;28;20197;-55
2021/11/21 00:47:12;;;;;;;12.07;7.32;;;10.10;99.90;;;;;;5030626;28;20201;-56
2021/11/21 00:49:41;;;;;;;12.07;7.63;;;9.90;99.90;;;;;;5033469;28;20555;-54
2021/11/21 00:52:09;;;;;;;9.82;6.82;;;9.90;99.90;;;;;;5032505;28;20221;-52
2021/11/21 00:54:47;;;;;;;16.50;7.97;;;9.90;99.90;;;;;;5031186;28;20224;-52
2021/11/21 00:57:16;;;;;;;8.77;6.93;;;10.00;99.90;;;;;;5030113;28;20443;-51
2021/11/21 00:59:44;;;;;;;10.85;5.90;;;10.00;99.90;;;;;;5029368;28;20216;-56
2021/11/21 01:02:12;;;;;;;6.90;6.00;;;10.00;99.90;;;;;;5032681;28;20266;-52
2021/11/21 01:04:41;;;;;;;9.52;6.75;;;10.10;99.90;;;;;;5027197;28;20228;-50
2021/11/21 01:07:12;;;;;;;10.25;7.13;;;10.20;99.90;;;;;;5030801;28;20238;-52
2021/11/21 01:09:40;;;;;;;9.55;7.70;;;10.20;99.90;;;;;;5023457;28;20419;-52
2021/11/21 01:12:08;;;;;;;9.00;5.65;;;10.20;99.90;;;;;;5028418;28;20383;-51
2021/11/21 01:14:37;;;;;;;9.60;6.35;;;10.10;99.90;;;;;;5022695;28;20580;-51
2021/11/21 01:17:06;;;;;;;9.95;7.97;;;10.10;99.90;;;;;;5028182;28;20252;-50
2021/11/21 01:19:34;;;;;;;10.75;6.68;;;10.30;99.90;;;;;;5030281;28;20444;-50
2021/11/21 01:22:03;;;;;;;7.93;6.45;;;10.30;99.90;;;;;;5028131;28;20258;-50
2021/11/21 01:24:31;;;;;;;12.10;7.82;;;10.30;99.90;;;;;;5029245;28;20197;-52
2021/11/21 01:26:58;;;;;;;11.27;7.45;;;10.30;99.90;;;;;;5026619;28;20255;-56
2021/11/21 01:29:26;;;;;;;11.05;7.25;;;10.50;99.90;;;;;;5028144;28;20239;-52
2021/11/21 01:31:53;;;;;;;8.75;7.82;;;10.60;99.90;;;;;;5024564;28;20228;-54
2021/11/21 01:34:21;;;;;;;9.30;8.40;;;10.60;99.90;;;;;;5038335;28;20215;-47
2021/11/21 01:36:48;;;;;;;8.88;7.93;;;10.40;99.90;;;;;;5026010;28;20202;-53
2021/11/21 01:39:16;;;;;;;8.60;7.40;;;10.30;99.90;;;;;;5030740;28;20227;-54
2021/11/21 01:41:43;;;;;;;10.98;8.02;;;10.30;99.90;;;;;;5029147;28;20217;-53
2021/11/21 01:44:12;;;;;;;11.02;8.60;;;10.50;99.90;;;;;;5029621;28;20209;-51
2021/11/21 01:46:40;;;;;;;8.68;6.28;;;10.60;99.90;;;;;;5035287;28;20252;-52
2021/11/21 01:49:09;;;;;;;8.43;6.70;;;10.50;99.90;;;;;;5033164;28;20235;-53
2021/11/21 01:51:36;;;;;;;6.55;5.65;;;10.20;99.90;;;;;;5028501;28;20260;-54
2021/11/21 01:54:06;;;;;;;8.90;6.65;;;10.30;99.90;;;;;;5029958;28;20259;-55
2021/11/21 01:56:34;;;;;;;7.28;6.00;;;10.40;99.90;;;;;;5028765;28;20444;-53
2021/11/21 01:59:02;;;;;;;9.30;7.55;;;10.40;99.90;;;;;;5030984;28;20279;-51
2021/11/21 02:01:30;;;;;;;9.05;7.18;;;10.20;99.90;;;;;;5035301;28;20582;-54
2021/11/21 02:03:57;;;;;;;7.95;7.15;;;10.00;99.90;;;;;;5029064;28;20197;-52
2021/11/21 02:06:25;;;;;;;9.23;7.18;;;9.90;99.90;;;;;;5030222;28;20197;-50
2021/11/21 02:08:56;;;;;;;10.60;9.18;;;9.90;99.90;;;;;;5036765;28;20208;-54
2021/11/21 02:11:25;;;;;;;11.48;9.18;;;10.10;99.90;;;;;;5041348;28;20274;-49
2021/11/21 02:13:53;;;;;;;10.40;7.32;;;10.30;99.90;;;;;;5033929;28;20287;-53
2021/11/21 02:16:25;;;;;;;11.57;7.25;;;10.40;99.90;;;;;;5032692;28;20202;-52
2021/11/21 02:18:52;;;;;;;9.60;6.88;;;10.40;99.90;;;;;;5030109;28;20563;-55
2021/11/21 02:21:22;;;;;;;7.63;6.72;;;10.40;99.90;;;;;;5035190;28;20262;-51
2021/11/21 02:23:50;;;;;;;7.03;6.00;;;10.40;99.90;;;;;;5040983;28;20295;-55
2021/11/21 02:26:18;;;;;;;9.82;7.55;;;10.40;99.90;;;;;;5030682;28;20224;-51
2021/11/21 02:28:48;;;;;;;9.15;7.13;;;10.40;99.90;;;;;;5031612;28;20200;-54
2021/11/21 02:31:16;;;;;;;9.07;6.88;;;10.30;99.90;;;;;;5031654;28;20500;-53
2021/11/21 02:33:46;;;;;;;8.93;6.57;;;10.50;99.90;;;;;;5028369;28;20248;-51
2021/11/21 02:36:13;;;;;;;8.45;6.53;;;10.40;99.90;;;;;;5028182;28;20420;-51
2021/11/21 02:38:41;;;;;;;9.50;6.90;;;10.50;99.90;;;;;;5027615;28;20471;-50
2021/11/21 02:41:09;;;;;;;8.90;7.10;;;10.50;99.90;;;;;;5026679;28;20593;-55
2021/11/21 02:43:38;;;;;;;16.05;8.10;;;10.60;99.90;;;;;;5032607;28;20204;-50
2021/11/21 02:46:05;;;;;;;10.63;7.20;;;10.60;99.90;;;;;;5025786;28;20209;-49
2021/11/21 02:48:35;;;;;;;9.10;7.22;;;10.60;99.90;;;;;;5028374;28;20229;-53
2021/11/21 02:51:05;;;;;;;8.23;6.68;;;10.50;99.90;;;;;;5025719;28;20580;-52
2021/11/21 02:53:34;;;;;;;9.25;6.68;;;10.60;99.90;;;;;;5031057;28;20570;-52
2021/11/21 02:56:06;;;;;;;7.60;6.72;;;10.50;99.90;;;;;;5033141;28;20204;-51
2021/11/21 02:58:35;;;;;;;12.95;7.97;;;10.60;99.90;;;;;;5040069;28;20196;-56
2021/11/21 03:01:22;;;;;;;9.30;6.93;;;10.60;99.90;;;;;;5033574;28;20224;-58
2021/11/21 03:03:51;;;;;;;12.52;8.63;;;10.60;99.90;;;;;;5026416;28;20208;-55
2021/11/21 03:06:18;;;;;;;11.43;8.00;;;10.60;99.90;;;;;;5028659;28;20516;-55
2021/11/21 03:08:46;;;;;;;9.30;7.85;;;10.40;99.90;;;;;;5036835;28;20275;-55
2021/11/21 03:11:27;;;;;;;8.88;6.90;;;10.40;99.90;;;;;;5028412;28;20286;-54
2021/11/21 03:13:57;;;;;;;10.07;7.05;;;10.20;99.90;;;;;;5037407;28;20206;-49
2021/11/21 03:16:24;;;;;;;8.20;7.28;;;10.20;99.90;;;;;;5026861;28;20201;-52
2021/11/21 03:18:52;;;;;;;9.07;6.95;;;10.00;99.90;;;;;;5022001;28;20228;-50
2021/11/21 03:21:19;;;;;;;12.25;8.35;;;10.10;99.90;;;;;;5020532;28;20567;-50
2021/11/21 03:23:47;;;;;;;10.00;7.43;;;10.00;99.90;;;;;;5028389;28;20198;-54
2021/11/21 03:26:15;;;;;;;10.82;8.45;;;10.10;99.90;;;;;;5025900;28;20205;-55
2021/11/21 03:28:43;;;;;;;11.85;7.20;;;10.00;99.90;;;;;;5026600;28;20240;-53
2021/11/21 03:31:13;;;;;;;11.32;9.10;;;10.00;99.90;;;;;;5023417;28;20463;-55
2021/11/21 03:33:41;;;;;;;9.15;7.13;;;10.00;99.90;;;;;;5025951;28;20197;-52
2021/11/21 03:36:08;;;;;;;10.48;7.78;;;9.90;99.90;;;;;;5033491;28;20209;-44
2021/11/21 03:38:36;;;;;;;10.32;7.35;;;9.80;99.90;;;;;;5019809;28;20197;-49
2021/11/21 03:41:04;;;;;;;9.82;8.25;;;9.60;99.90;;;;;;5027127;28;20336;-53
2021/11/21 03:43:31;;;;;;;9.35;7.53;;;9.50;99.90;;;;;;5024155;28;20235;-52
2021/11/21 03:45:59;;;;;;;9.75;7.65;;;9.70;99.90;;;;;;5027223;28;20383;-53
2021/11/21 03:48:26;;;;;;;10.18;7.53;;;9.80;99.90;;;;;;5021059;28;20523;-51
2021/11/21 03:50:54;;;;;;;10.50;8.35;;;9.70;99.90;;;;;;5025699;28;20228;-52
2021/11/21 03:53:21;;;;;;;10.85;8.85;;;9.70;99.90;;;;;;5023566;28;20204;-52
2021/11/21 03:55:49;;;;;;;11.20;8.95;;;9.70;99.90;;;;;;5027297;28;20516;-51
2021/11/21 03:58:17;;;;;;;11.85;9.15;;;9.70;99.90;;;;;;5026044;28;20204;-51
2021/11/21 04:00:49;;;;;;;10.60;8.10;;;9.70;99.90;;;;;;5026540;28;20291;-57
2021/11/21 04:03:18;;;;;;;8.70;7.63;;;9.60;99.90;;;;;;5025912;28;20204;-56
2021/11/21 04:05:46;;;;;;;12.80;8.98;;;9.60;99.90;;;;;;5026194;28;20205;-50
2021/11/21 04:08:14;;;;;;;10.60;8.35;;;9.60;99.90;;;;;;5020394;28;20793;-50
2021/11/21 04:10:41;;;;;;;15.32;8.68;;;9.40;99.90;;;;;;5026970;28;20483;-53
2021/11/21 04:13:09;;;;;;;13.60;8.82;;;9.40;99.90;;;;;;5029060;28;20415;-51
2021/11/21 04:15:38;;;;;;;16.63;10.85;;;9.50;99.90;;;;;;5035525;28;20208;-48
2021/11/21 04:18:05;;;;;;;12.55;10.13;;;9.40;99.90;;;;;;5028840;28;20282;-56
2021/11/21 04:20:33;;;;;;;11.30;9.18;;;9.20;99.90;;;;;;5023604;28;20224;-52
2021/11/21 04:23:00;;;;;;;8.90;6.78;;;9.10;99.90;;;;;;5029322;28;20205;-53
2021/11/21 04:25:27;;;;;;;12.32;8.90;;;8.90;99.90;;;;;;5020109;28;20197;-52
2021/11/21 04:27:54;;;;;;;19.77;10.10;;;8.80;99.90;;;;;;5025094;28;20192;-52
2021/11/21 04:30:22;;;;;;;16.00;10.20;;;8.80;99.90;;;;;;5019515;28;20344;-51
2021/11/21 04:32:49;;;;;;;16.52;10.15;;;8.90;99.90;;;;;;5026273;28;20489;-50
2021/11/21 04:35:20;;;;;;;12.38;8.93;;;9.20;99.90;;;;;;5027779;28;20200;-53
2021/11/21 04:37:48;;;;;;;16.92;11.32;;;9.40;99.90;;;;;;5036212;28;20390;-51
2021/11/21 04:40:17;;;;;;;18.73;11.25;;;9.40;99.90;;;;;;5029544;28;20223;-52
2021/11/21 04:42:44;;;;;;;14.23;10.90;;;9.50;99.90;;;;;;5025401;28;20283;-53
2021/11/21 04:45:13;;;;;;;17.02;10.20;;;9.50;99.90;;;;;;5036637;28;20266;-56
2021/11/21 04:47:40;;;;;;;15.07;10.18;;;9.60;99.90;;;;;;5033415;28;20527;-49
2021/11/21 04:50:11;;;;;;;13.48;9.50;;;9.60;99.90;;;;;;5026002;28;20204;-52
2021/11/21 04:52:38;;;;;;;13.32;9.10;;;9.60;99.90;;;;;;5026570;28;20436;-52
2021/11/21 04:55:08;;;;;;;13.90;9.93;;;9.60;99.90;;;;;;5030173;28;20217;-46
2021/11/21 04:57:39;;;;;;;10.98;9.20;;;9.70;99.90;;;;;;5024275;28;20227;-56
2021/11/21 05:00:11;;;;;;;11.63;8.75;;;9.60;99.90;;;;;;5027968;28;20224;-50
2021/11/21 05:02:40;;;;;;;12.93;10.45;;;9.60;99.90;;;;;;5023688;28;20304;-53
2021/11/21 05:05:09;;;;;;;12.95;9.80;;;9.50;99.90;;;;;;5027733;28;20196;-54
2021/11/21 05:07:36;;;;;;;14.13;9.57;;;9.40;99.90;;;;;;5031563;28;20197;-54
2021/11/21 05:10:07;;;;;;;13.05;9.60;;;9.50;99.90;;;;;;5025703;28;20279;-54
2021/11/21 05:12:36;;;;;;;15.18;9.50;;;9.40;99.90;;;;;;5025292;28;20369;-52
2021/11/21 05:15:07;;;;;;;11.02;9.02;;;9.40;99.90;;;;;;5025256;28;20488;-53
2021/11/21 05:17:34;;;;;;;11.07;8.88;;;9.40;99.90;;;;;;5041249;28;20431;-50
2021/11/21 05:20:02;;;;;;;11.48;9.68;;;9.50;99.90;;;;;;5035548;28;20231;-53
2021/11/21 05:22:30;;;;;;;19.60;9.75;;;9.40;99.90;;;;;;5032593;28;20270;-51
2021/11/21 05:24:58;;;;;;;13.93;9.35;;;9.40;99.90;;;;;;5028307;28;20212;-46
2021/11/21 05:27:25;;;;;;;13.10;10.65;;;9.30;99.90;;;;;;5033739;28;20199;-56
2021/11/21 05:29:53;;;;;;;10.43;9.07;;;9.10;99.90;;;;;;5034703;28;20223;-53
2021/11/21 05:32:21;;;;;;;14.65;9.02;;;9.10;99.90;;;;;;5030463;28;20275;-49
2021/11/21 05:34:51;;;;;;;14.30;11.75;;;9.20;99.90;;;;;;5039369;28;20246;-53
2021/11/21 05:37:18;;;;;;;17.13;9.68;;;9.30;99.90;;;;;;5027696;28;20201;-54
2021/11/21 05:39:46;;;;;;;13.85;10.15;;;9.30;99.90;;;;;;5037375;28;20554;-55
2021/11/21 05:42:13;;;;;;;12.77;10.45;;;9.30;99.90;;;;;;5023684;28;20254;-52
2021/11/21 05:44:41;;;;;;;12.10;10.07;;;9.30;99.90;;;;;;5033968;28;20200;-49
2021/11/21 05:47:08;;;;;;;19.10;11.63;;;9.30;99.90;;;;;;5032953;28;20200;-48
2021/11/21 05:49:35;;;;;;;11.80;9.50;;;9.10;99.90;;;;;;5030600;28;20484;-51
2021/11/21 05:52:03;;;;;;;15.75;10.65;;;9.10;99.90;;;;;;5038404;28;20216;-52
2021/11/21 05:54:31;;;;;;;13.32;10.20;;;9.20;99.90;;;;;;5030213;28;20208;-51
2021/11/21 05:56:59;;;;;;;16.23;11.98;;;9.20;99.90;;;;;;5026004;28;20208;-49
2021/11/21 05:59:26;;;;;;;13.73;10.05;;;9.00;99.90;;;;;;5028318;28;20201;-53
2021/11/21 06:01:53;;;;;;;11.73;10.02;;;9.00;99.90;;;;;;5029991;28;20224;-48
2021/11/21 06:04:21;;;;;;;16.60;10.63;;;9.00;99.90;;;;;;5033665;28;20403;-51
2021/11/21 06:06:48;;;;;;;13.77;10.75;;;9.00;99.90;;;;;;5029013;28;20201;-54
2021/11/21 06:09:15;;;;;;;15.10;9.15;;;9.00;99.90;;;;;;5025623;28;20197;-54
2021/11/21 06:11:43;;;;;;;12.65;10.63;;;8.90;99.90;;;;;;5026966;28;20251;-54
2021/11/21 06:14:10;;;;;;;16.23;10.38;;;8.90;99.90;;;;;;5024251;28;20200;-52
2021/11/21 06:16:38;;;;;;;18.52;12.05;;;9.00;99.90;;;;;;5026410;28;20432;-50
2021/11/21 06:19:06;;;;;;;14.13;10.82;;;9.10;99.90;;;;;;5032020;28;20196;-55
2021/11/21 06:21:34;;;;;;;16.38;10.82;;;9.00;99.90;;;;;;5041030;28;20246;-51
2021/11/21 06:24:02;;;;;;;20.33;10.02;;;8.90;99.90;;;;;;5032696;28;20207;-57
2021/11/21 06:26:29;;;;;;;14.13;10.63;;;9.00;99.90;;;;;;5024542;28;20200;-52
2021/11/21 06:28:57;;;;;;;14.15;9.77;;;8.90;99.90;;;;;;5026194;28;20239;-51
2021/11/21 06:31:25;;;;;;;14.77;9.85;;;9.00;99.90;;;;;;5023802;28;20228;-54
2021/11/21 06:33:55;;;;;;;13.82;11.18;;;9.10;99.90;;;;;;5026178;28;20201;-57
2021/11/21 06:36:24;;;;;;;14.60;11.10;;;9.00;99.90;;;;;;5030364;28;20209;-47
2021/11/21 06:38:51;;;;;;;14.70;10.75;;;9.10;99.90;;;;;;5024895;28;20228;-53
2021/11/21 06:41:19;;;;;;;17.08;12.05;;;9.10;99.90;;;;;;5028240;28;20290;-52
2021/11/21 06:43:46;;;;;;;14.82;11.23;;;8.90;99.90;;;;;;5024326;28;20204;-54
2021/11/21 06:46:15;;;;;;;16.60;11.93;;;8.80;99.90;;;;;;5026675;28;20259;-52
2021/11/21 06:48:43;;;;;;;13.60;10.90;;;8.90;99.90;;;;;;5023213;28;20197;-51
2021/11/21 06:51:12;;;;;;;15.25;11.20;;;9.00;99.90;;;;;;5026835;28;20228;-51
2021/11/21 06:53:39;;;;;;;17.27;11.40;;;8.90;99.90;;;;;;5033923;28;20204;-53
2021/11/21 06:56:06;;;;;;;17.98;11.35;;;9.00;99.90;;;;;;5022943;28;20220;-54
2021/11/21 06:58:33;;;;;;;15.38;11.80;;;9.00;99.90;;;;;;5023642;28;20398;-52
2021/11/21 07:01:01;;;;;;;18.35;13.77;;;9.10;99.90;;;;;;5022761;28;20260;-57
2021/11/21 07:03:28;;;;;;;13.20;9.85;;;9.10;99.90;;;;;;5024974;28;20197;-54
2021/11/21 07:05:55;;;;;;;13.02;11.52;;;9.20;99.90;;;;;;5024700;28;20240;-53
2021/11/21 07:08:23;;;;;;;18.98;11.23;;;9.20;99.90;;;;;;5034349;28;20200;-48
2021/11/21 07:10:51;;;;;;;19.60;15.02;;;9.10;99.90;;;;;;5030317;28;20228;-52
2021/11/21 07:13:21;;;;;;;21.38;14.27;;;9.30;99.90;;;;;;5028386;28;20570;-53
2021/11/21 07:15:49;;;;;;;13.65;10.63;;;9.30;99.90;;;;;;5023281;28;20439;-55
2021/11/21 07:18:17;;;;;;;17.55;12.52;;;9.30;99.90;;;;;;5028185;28;20229;-51
2021/11/21 07:20:44;;;;;;;19.40;12.75;;;9.30;99.90;;;;;;5024869;28;20224;-52
2021/11/21 07:23:17;;;;;;;15.02;12.77;;;9.40;99.90;;;;;;5027158;28;20453;-52
2021/11/21 07:25:44;;;;;;;14.50;9.85;;;9.50;99.90;;;;;;5029744;28;20592;-55
2021/11/21 07:28:12;;;;;;;15.93;12.25;;;9.40;99.90;;;;;;5027111;28;20200;-52
2021/11/21 07:30:39;;;;;;;14.52;11.10;;;9.30;99.90;;;;;;5024853;28;20209;-52
2021/11/21 07:33:06;;;;;;;14.55;11.32;;;9.30;99.90;;;;;;5032896;28;20272;-51
2021/11/21 07:35:33;;;;;;;14.73;9.60;;;9.30;99.90;;;;;;5027353;28;20255;-53
2021/11/21 07:38:01;;;;;;;14.43;10.70;;;9.50;99.90;;;;;;5033068;28;20223;-54
2021/11/21 07:40:28;;;;;;;15.27;11.43;;;9.70;99.90;;;;;;5027736;28;20275;-52
2021/11/21 07:42:55;;;;;;;16.23;11.48;;;9.80;99.90;;;;;;5030796;28;20204;-54
2021/11/21 07:45:23;;;;;;;18.50;10.65;;;9.90;99.90;;;;;;5032559;28;20197;-53
2021/11/21 07:47:51;;;;;;;15.15;11.82;;;9.80;99.90;;;;;;5025410;28;20217;-46
2021/11/21 07:50:19;;;;;;;13.88;11.73;;;9.90;99.90;;;;;;5031122;28;20252;-54
2021/11/21 07:52:47;;;;;;;13.38;9.98;;;10.00;99.90;;;;;;5027945;28;20543;-52
2021/11/21 07:55:15;;;;;;;13.65;10.73;;;10.00;99.90;;;;;;5031821;28;20247;-53
2021/11/21 07:57:42;;;;;;;14.27;9.90;;;10.00;99.90;;;;;;5023392;28;20370;-50
2021/11/21 08:00:12;;;;;;;17.73;12.50;;;10.10;99.90;;;;;;5023789;28;20259;-52
2021/11/21 08:02:39;;;;;;;10.90;9.43;;;10.10;99.90;;;;;;5020523;28;20217;-55
2021/11/21 08:05:07;;;;;;;13.50;10.20;;;10.30;99.90;;;;;;5029498;28;20260;-53
2021/11/21 08:07:36;;;;;;;13.50;11.35;;;10.40;99.90;;;;;;5030640;28;20216;-52
2021/11/21 08:10:06;;;;;;;11.25;10.15;;;10.60;99.90;;;;;;5032007;28;20247;-53
2021/11/21 08:12:33;;;;;;;14.60;10.65;;;10.80;99.90;;;;;;5031189;28;20221;-54
2021/11/21 08:15:01;;;;;;;14.52;10.48;;;11.00;99.90;;;;;;5030331;28;20205;-51
2021/11/21 08:17:28;;;;;;;17.05;11.30;;;10.90;99.90;;;;;;5039293;28;20213;-51
2021/11/21 08:19:55;;;;;;;10.48;8.38;;;10.90;99.90;;;;;;5036976;28;20214;-49
2021/11/21 08:22:22;;;;;;;15.38;10.07;;;10.70;99.90;;;;;;5038191;28;20537;-52
2021/11/21 08:24:51;;;;;;;11.90;10.45;;;10.80;99.90;;;;;;5031555;28;20451;-52
2021/11/21 08:27:18;;;;;;;14.70;10.52;;;11.10;99.90;;;;;;5036166;28;20198;-50
2021/11/21 08:29:46;;;;;;;16.90;12.05;;;11.20;99.90;;;;;;5023872;28;20516;-53
2021/11/21 08:32:13;;;;;;;17.80;13.57;;;11.30;99.90;;;;;;5022702;28;20553;-55
2021/11/21 08:34:44;;;;;;;21.08;12.98;;;11.20;99.90;;;;;;5026789;28;20378;-55
2021/11/21 08:37:12;;;;;;;17.63;11.18;;;11.20;99.90;;;;;;5032933;28;20614;-52
2021/11/21 08:39:41;;;;;;;12.05;10.18;;;11.00;99.90;;;;;;5029338;28;20512;-56
2021/11/21 08:42:08;;;;;;;11.40;9.90;;;10.60;99.90;;;;;;5019618;28;20250;-50
2021/11/21 08:44:36;;;;;;;15.23;10.25;;;10.60;99.90;;;;;;5022789;28;20297;-51
2021/11/21 08:47:03;;;;;;;12.60;9.45;;;10.70;99.90;;;;;;5035520;28;20278;-54
2021/11/21 08:49:30;;;;;;;31.83;18.27;;;10.60;99.90;;;;;;5036932;28;20340;-55
2021/11/21 08:51:57;;;;;;;11.50;9.52;;;10.60;99.90;;;;;;5036560;28;20226;-53
2021/11/21 08:54:26;;;;;;;11.05;8.82;;;10.50;99.90;;;;;;5037164;28;20213;-56
2021/11/21 08:56:53;;;;;;;14.00;10.38;;;10.40;99.90;;;;;;5037887;28;20461;-51
2021/11/21 08:59:21;;;;;;;13.95;10.77;;;10.30;99.90;;;;;;5037490;28;20194;-48
2021/11/21 09:01:49;;;;;;;12.18;9.85;;;10.20;99.90;;;;;;5038322;28;20228;-55
2021/11/21 09:04:17;;;;;;;14.90;11.02;;;10.10;99.90;;;;;;5046962;28;20269;-57
2021/11/21 09:06:46;;;;;;;14.23;11.35;;;10.10;99.90;;;;;;5039794;28;20485;-52
2021/11/21 09:09:14;;;;;;;14.32;10.15;;;10.20;99.90;;;;;;5036410;28;20207;-55
2021/11/21 09:11:42;;;;;;;14.98;9.93;;;10.30;99.90;;;;;;5039527;28;20222;-53
2021/11/21 09:14:11;;;;;;;15.95;10.75;;;10.40;99.90;;;;;;5037329;28;20201;-55
2021/11/21 09:16:39;;;;;;;15.15;11.55;;;10.40;99.90;;;;;;5039971;28;20270;-53
2021/11/21 09:19:06;;;;;;;12.77;9.85;;;10.50;99.90;;;;;;5038629;28;20208;-50
2021/11/21 09:21:33;;;;;;;14.90;9.60;;;10.50;99.90;;;;;;5036361;28;20233;-54
2021/11/21 09:24:01;;;;;;;12.88;10.02;;;10.50;99.90;;;;;;5038437;28;20240;-51
2021/11/21 09:26:29;;;;;;;15.73;12.40;;;10.50;99.90;;;;;;5038460;28;20240;-51
2021/11/21 09:28:57;;;;;;;14.98;11.27;;;10.50;99.90;;;;;;5037319;28;20202;-52
2021/11/21 09:31:24;;;;;;;14.18;11.55;;;10.50;99.90;;;;;;5037610;28;20229;-50
2021/11/21 09:33:52;;;;;;;12.77;10.80;;;10.60;99.90;;;;;;5036020;28;20467;-51
2021/11/21 09:36:20;;;;;;;14.10;11.20;;;10.60;99.90;;;;;;5039129;28;20494;-51
2021/11/21 09:38:48;;;;;;;15.15;11.38;;;10.60;99.90;;;;;;5036911;28;20210;-53
2021/11/21 09:41:17;;;;;;;15.93;10.90;;;10.60;99.90;;;;;;5037354;28;20277;-51
2021/11/21 09:43:45;;;;;;;17.10;11.60;;;10.70;99.90;;;;;;5037343;28;20509;-51
2021/11/21 09:46:14;;;;;;;13.32;11.60;;;10.50;99.90;;;;;;5034955;28;20555;-50
2021/11/21 09:48:41;;;;;;;13.68;9.98;;;10.40;99.90;;;;;;5037555;28;20197;-53
2021/11/21 09:51:09;;;;;;;19.42;12.70;;;10.40;99.90;;;;;;5036869;28;20268;-51
2021/11/21 09:53:36;;;;;;;15.50;10.55;;;10.60;99.90;;;;;;5038326;28;20240;-53
2021/11/21 09:56:04;;;;;;;12.20;10.60;;;10.50;99.90;;;;;;5035455;28;20297;-51
2021/11/21 09:58:31;;;;;;;14.35;11.80;;;10.40;99.90;;;;;;5036671;28;20211;-53
2021/11/21 10:00:59;;;;;;;13.18;10.20;;;10.30;99.90;;;;;;5035673;28;20273;-53
2021/11/21 10:03:27;;;;;;;16.52;10.82;;;10.30;99.90;;;;;;5037045;28;20540;-52
2021/11/21 10:05:55;;;;;;;12.15;9.98;;;10.20;99.90;;;;;;5035543;28;20197;-51
2021/11/21 10:08:28;;;;;;;11.65;9.30;;;10.10;99.90;;;;;;5036483;28;20202;-56
2021/11/21 10:11:08;;;;;;;17.83;9.30;;;10.00;99.90;;;;;;5035275;28;20240;-54
2021/11/21 10:13:42;;;;;;;14.70;10.02;;;10.20;99.90;;;;;;5035425;28;20351;-53
2021/11/21 10:16:32;;;;;;;17.05;11.48;;;10.40;99.90;;;;;;5035752;28;20211;-50
2021/11/21 10:19:03;;;;;;;14.50;10.30;;;10.60;99.90;;;;;;5038122;28;20204;-50
2021/11/21 10:21:51;;;;;;;12.85;10.25;;;10.80;99.90;;;;;;5037433;28;20291;-45
2021/11/21 10:24:30;;;;;;;10.93;8.98;;;10.70;99.90;;;;;;5035699;28;20485;-53
2021/11/21 10:27:10;;;;;;;14.98;10.95;;;10.80;99.90;;;;;;5031741;28;20269;-54
2021/11/21 10:29:38;;;;;;;13.10;9.70;;;11.00;99.90;;;;;;5033268;28;20187;-53
2021/11/21 10:32:19;;;;;;;16.40;10.23;;;11.20;99.90;;;;;;5034364;28;20247;-51
2021/11/21 10:34:52;;;;;;;12.57;10.30;;;11.20;99.90;;;;;;5035476;28;20266;-53
2021/11/21 10:37:27;;;;;;;12.55;9.02;;;11.40;99.90;;;;;;5034699;28;20204;-51
2021/11/21 10:40:17;;;;;;;13.38;9.45;;;11.60;99.90;;;;;;5034226;28;20210;-49
2021/11/21 10:42:46;;;;;;;15.20;10.90;;;11.40;99.90;;;;;;5034716;28;20234;-53
2021/11/21 10:45:19;;;;;;;13.98;10.35;;;11.00;99.90;;;;;;5034489;28;20667;-52
2021/11/21 10:47:51;;;;;;;16.70;9.40;;;10.80;99.90;;;;;;5036983;28;20207;-52
2021/11/21 10:50:32;;;;;;;13.07;9.52;;;10.80;99.90;;;;;;5030855;28;20540;-54
2021/11/21 10:53:07;;;;;;;15.48;10.00;;;11.00;99.90;;;;;;5036210;28;20384;-52
2021/11/21 10:55:36;;;;;;;11.90;10.00;;;11.40;99.90;;;;;;5036606;28;20195;-50
2021/11/21 10:58:18;;;;;;;15.15;10.32;;;11.50;99.90;;;;;;5035589;28;20245;-55
2021/11/21 11:00:57;;;;;;;14.55;9.93;;;11.50;99.90;;;;;;5036022;28;20198;-54
2021/11/21 11:03:26;;;;;;;12.02;8.50;;;11.30;99.90;;;;;;5035319;28;20240;-53
2021/11/21 11:05:53;;;;;;;16.02;9.70;;;11.30;99.90;;;;;;5038281;28;20211;-50
2021/11/21 11:08:29;;;;;;;14.32;9.40;;;11.20;99.90;;;;;;5039530;28;20199;-54
2021/11/21 11:10:57;;;;;;;12.15;8.98;;;11.10;99.90;;;;;;5035114;28;20531;-55
2021/11/21 11:13:26;;;;;;;10.70;9.13;;;11.00;99.90;;;;;;5037003;28;20202;-51
2021/11/21 11:15:57;;;;;;;12.68;9.52;;;11.20;99.90;;;;;;5042033;28;20248;-50
2021/11/21 11:18:28;;;;;;;10.20;8.38;;;11.20;99.90;;;;;;5037351;28;20211;-50
2021/11/21 11:20:59;;;;;;;14.05;11.00;;;11.20;99.90;;;;;;5035943;28;20239;-48
2021/11/21 11:23:27;;;;;;;13.10;9.23;;;11.00;99.90;;;;;;5036943;28;20224;-54
2021/11/21 11:26:03;;;;;;;10.05;8.73;;;11.10;99.90;;;;;;5033535;28;20197;-51
2021/11/21 11:28:33;;;;;;;11.18;8.73;;;11.10;99.90;;;;;;5037564;28;20201;-54
2021/11/21 11:31:24;;;;;;;12.00;9.15;;;11.00;99.90;;;;;;5034566;28;20252;-49
2021/11/21 11:33:54;;;;;;;9.32;8.43;;;10.90;99.90;;;;;;5034260;28;20226;-52
2021/11/21 11:36:25;;;;;;;10.57;8.48;;;10.90;99.90;;;;;;5033916;28;20517;-52
2021/11/21 11:39:14;;;;;;;15.13;8.55;;;10.90;99.90;;;;;;5033664;28;20210;-52
2021/11/21 11:41:57;;;;;;;11.95;8.63;;;10.80;99.90;;;;;;5031803;28;20262;-53
2021/11/21 11:44:25;;;;;;;10.75;7.95;;;10.80;99.90;;;;;;5034666;28;20230;-53
2021/11/21 11:46:52;;;;;;;11.50;8.57;;;10.80;99.90;;;;;;5033483;28;20199;-54
2021/11/21 11:49:39;;;;;;;12.63;9.73;;;11.00;99.90;;;;;;5037110;28;20237;-53
2021/11/21 11:52:07;;;;;;;13.45;9.88;;;10.90;99.90;;;;;;5037242;28;20544;-54
2021/11/21 11:54:34;;;;;;;14.70;11.00;;;10.80;99.90;;;;;;5031964;28;20203;-52
2021/11/21 11:57:09;;;;;;;13.23;9.95;;;10.90;99.90;;;;;;5034624;28;20526;-54
2021/11/21 11:59:53;;;;;;;13.13;11.18;;;10.80;99.90;;;;;;5032286;28;20200;-51
2021/11/21 12:02:35;;;;;;;14.85;10.50;;;10.80;99.90;;;;;;5033323;28;20318;-53
2021/11/21 12:05:06;;;;;;;17.30;11.73;;;10.70;99.90;;;;;;5033047;28;20272;-53
2021/11/21 12:07:42;;;;;;;12.93;10.05;;;10.70;99.90;;;;;;5032197;28;20219;-54
2021/11/21 12:10:18;;;;;;;15.48;10.43;;;10.70;99.90;;;;;;5032246;28;20665;-51
2021/11/21 12:12:51;;;;;;;13.27;10.73;;;10.70;99.90;;;;;;5034143;28;20221;-56
2021/11/21 12:15:51;;;;;;;10.50;8.63;;;10.70;99.90;;;;;;5033269;28;20202;-56
2021/11/21 12:18:20;;;;;;;13.75;9.68;;;10.70;99.90;;;;;;5034690;28;20210;-55
2021/11/21 12:20:54;;;;;;;12.23;10.25;;;10.60;99.90;;;;;;5034788;28;20206;-55
2021/11/21 12:23:55;;;;;;;13.45;9.43;;;10.60;99.90;;;;;;5055506;28;20199;-56
2021/11/21 12:26:27;;;;;;;14.07;9.15;;;10.50;99.90;;;;;;5036771;28;20221;-52
2021/11/21 12:29:01;;;;;;;13.68;9.70;;;10.40;99.90;;;;;;5038553;28;20198;-57
2021/11/21 12:31:39;;;;;;;13.52;9.60;;;10.40;99.90;;;;;;5039808;28;20235;-53
2021/11/21 12:34:26;;;;;;;10.77;8.48;;;10.40;99.90;;;;;;5038665;28;20291;-50
2021/11/21 12:37:14;;;;;;;11.40;9.77;;;10.40;99.90;;;;;;5036738;28;20252;-52
2021/11/21 12:40:06;;;;;;;11.18;9.05;;;10.30;99.90;;;;;;5033091;28;20246;-55
2021/11/21 12:42:35;;;;;;;14.10;10.48;;;10.30;99.90;;;;;;5037532;28;20225;-54
2021/11/21 12:45:05;;;;;;;15.02;10.45;;;10.30;99.90;;;;;;5039277;28;20385;-50
2021/11/21 12:47:34;;;;;;;14.60;11.13;;;10.30;99.90;;;;;;5034538;28;20238;-54
2021/11/21 12:50:03;;;;;;;11.95;10.52;;;10.40;99.90;;;;;;5035047;28;20278;-51